SKLT/LET METAR and TAF weather

Enter ICAO airport designator
Station Type Date Time Source
SKLT METAR 2019/08/25 14:00 UTC NOAA

SKLT 251400Z 01004KT 9999 FEW015 SCT100 26/24 A3001


Station Type Date Time Source
SKLT Decoded METAR 2019/08/25 14:00 UTC NOAA

Station name not available
Aug 25, 2019 - 10:00 AM EDT / 2019.08.25 1400 UTC
Wind: from the N (010 degrees) at 5 MPH (4 KT):0
Visibility: greater than 7 mile(s):0
Sky conditions: partly cloudy
Temperature: 78 F (26 C)
Dew Point: 75 F (24 C)
Relative Humidity: 88%
Pressure (altimeter): 30.01 in. Hg (1016 hPa)
ob: SKLT 251400Z 01004KT 9999 FEW015 SCT100 26/24 A3001
cycle: 14

Station Type Date Time Source
SKLT TAF 2019/08/25 12:40 UTC NOAA

TAF SKLT 251030Z 2512/2612 00000KT 9999 SCT017 SCT090
BECMG 2514/2516 31005KT
BECMG 2523/2601 00000KT CAVOK TX32/2518Z TN21/2611Z

Example: see airport list